sensor_id;sensor_type;location;lat;lon;timestamp;P1;durP1;ratioP1;P2;durP2;ratioP2
12267;SDS011;6196;48.398;11.736;2023-03-21T00:01:36;4.93;;;4.43;;
12267;SDS011;6196;48.398;11.736;2023-03-21T00:04:03;4.67;;;4.27;;
12267;SDS011;6196;48.398;11.736;2023-03-21T00:06:30;4.50;;;4.10;;
12267;SDS011;6196;48.398;11.736;2023-03-21T00:08:57;4.67;;;4.20;;
12267;SDS011;6196;48.398;11.736;2023-03-21T00:11:24;5.67;;;4.40;;
12267;SDS011;6196;48.398;11.736;2023-03-21T00:13:51;6.07;;;4.20;;
12267;SDS011;6196;48.398;11.736;2023-03-21T00:16:18;4.17;;;3.77;;
12267;SDS011;6196;48.398;11.736;2023-03-21T00:18:59;4.23;;;3.90;;
12267;SDS011;6196;48.398;11.736;2023-03-21T00:21:28;4.30;;;3.90;;
12267;SDS011;6196;48.398;11.736;2023-03-21T00:24:17;4.10;;;3.70;;
12267;SDS011;6196;48.398;11.736;2023-03-21T00:26:44;5.87;;;3.87;;
12267;SDS011;6196;48.398;11.736;2023-03-21T00:29:11;4.40;;;4.00;;
12267;SDS011;6196;48.398;11.736;2023-03-21T00:31:38;4.20;;;3.80;;
12267;SDS011;6196;48.398;11.736;2023-03-21T00:34:05;4.20;;;3.80;;
12267;SDS011;6196;48.398;11.736;2023-03-21T00:36:31;4.20;;;3.80;;
12267;SDS011;6196;48.398;11.736;2023-03-21T00:38:58;5.40;;;4.13;;
12267;SDS011;6196;48.398;11.736;2023-03-21T00:41:26;4.73;;;4.33;;
12267;SDS011;6196;48.398;11.736;2023-03-21T00:44:08;4.40;;;4.00;;
12267;SDS011;6196;48.398;11.736;2023-03-21T00:46:39;5.30;;;3.87;;
12267;SDS011;6196;48.398;11.736;2023-03-21T00:49:16;5.07;;;4.57;;
12267;SDS011;6196;48.398;11.736;2023-03-21T00:51:46;4.00;;;3.60;;
12267;SDS011;6196;48.398;11.736;2023-03-21T00:54:16;4.23;;;3.83;;
12267;SDS011;6196;48.398;11.736;2023-03-21T00:56:43;5.67;;;3.77;;
12267;SDS011;6196;48.398;11.736;2023-03-21T00:59:10;4.40;;;4.00;;
12267;SDS011;6196;48.398;11.736;2023-03-21T01:01:37;4.70;;;4.23;;
12267;SDS011;6196;48.398;11.736;2023-03-21T01:04:04;4.37;;;3.90;;
12267;SDS011;6196;48.398;11.736;2023-03-21T01:06:36;4.40;;;4.00;;
12267;SDS011;6196;48.398;11.736;2023-03-21T01:09:05;4.30;;;3.90;;
12267;SDS011;6196;48.398;11.736;2023-03-21T01:11:36;4.23;;;3.83;;
12267;SDS011;6196;48.398;11.736;2023-03-21T01:14:03;3.87;;;3.53;;
12267;SDS011;6196;48.398;11.736;2023-03-21T01:16:47;4.30;;;3.90;;
12267;SDS011;6196;48.398;11.736;2023-03-21T01:19:19;4.47;;;4.07;;
12267;SDS011;6196;48.398;11.736;2023-03-21T01:22:06;4.30;;;3.90;;
12267;SDS011;6196;48.398;11.736;2023-03-21T01:24:33;3.93;;;3.63;;
12267;SDS011;6196;48.398;11.736;2023-03-21T01:27:11;4.80;;;4.30;;
12267;SDS011;6196;48.398;11.736;2023-03-21T01:29:38;4.80;;;4.13;;
12267;SDS011;6196;48.398;11.736;2023-03-21T01:32:05;4.27;;;3.87;;
12267;SDS011;6196;48.398;11.736;2023-03-21T01:34:32;5.67;;;3.67;;
12267;SDS011;6196;48.398;11.736;2023-03-21T01:36:59;4.67;;;3.67;;
12267;SDS011;6196;48.398;11.736;2023-03-21T01:39:26;4.13;;;3.73;;
12267;SDS011;6196;48.398;11.736;2023-03-21T01:41:53;5.37;;;4.40;;
12267;SDS011;6196;48.398;11.736;2023-03-21T01:44:20;4.80;;;4.23;;
12267;SDS011;6196;48.398;11.736;2023-03-21T01:46:47;4.53;;;4.10;;
12267;SDS011;6196;48.398;11.736;2023-03-21T01:49:34;4.10;;;3.73;;
12267;SDS011;6196;48.398;11.736;2023-03-21T01:52:07;5.30;;;4.20;;
12267;SDS011;6196;48.398;11.736;2023-03-21T01:54:53;6.73;;;4.30;;
12267;SDS011;6196;48.398;11.736;2023-03-21T01:57:23;4.07;;;3.67;;
12267;SDS011;6196;48.398;11.736;2023-03-21T02:00:12;3.97;;;3.60;;
12267;SDS011;6196;48.398;11.736;2023-03-21T02:02:41;4.70;;;4.10;;
12267;SDS011;6196;48.398;11.736;2023-03-21T02:05:18;4.03;;;3.63;;
12267;SDS011;6196;48.398;11.736;2023-03-21T02:07:54;4.47;;;3.87;;
12267;SDS011;6196;48.398;11.736;2023-03-21T02:10:21;4.03;;;3.50;;
12267;SDS011;6196;48.398;11.736;2023-03-21T02:12:48;4.20;;;3.80;;
12267;SDS011;6196;48.398;11.736;2023-03-21T02:15:15;4.50;;;4.10;;
12267;SDS011;6196;48.398;11.736;2023-03-21T02:23:22;4.40;;;4.00;;
12267;SDS011;6196;48.398;11.736;2023-03-21T02:32:06;4.50;;;4.10;;
12267;SDS011;6196;48.398;11.736;2023-03-21T02:41:15;4.80;;;4.40;;
12267;SDS011;6196;48.398;11.736;2023-03-21T02:44:06;4.00;;;3.50;;
12267;SDS011;6196;48.398;11.736;2023-03-21T02:46:56;3.93;;;3.53;;
12267;SDS011;6196;48.398;11.736;2023-03-21T02:49:34;4.20;;;3.80;;
12267;SDS011;6196;48.398;11.736;2023-03-21T02:52:17;4.47;;;4.10;;
12267;SDS011;6196;48.398;11.736;2023-03-21T02:55:03;3.93;;;3.63;;
12267;SDS011;6196;48.398;11.736;2023-03-21T02:57:39;4.77;;;3.60;;
12267;SDS011;6196;48.398;11.736;2023-03-21T03:00:09;4.20;;;3.80;;
12267;SDS011;6196;48.398;11.736;2023-03-21T03:02:43;3.60;;;3.30;;
12267;SDS011;6196;48.398;11.736;2023-03-21T03:05:17;4.20;;;3.80;;
12267;SDS011;6196;48.398;11.736;2023-03-21T03:08:09;4.77;;;4.13;;
12267;SDS011;6196;48.398;11.736;2023-03-21T03:11:11;3.97;;;3.57;;
12267;SDS011;6196;48.398;11.736;2023-03-21T03:22:57;3.97;;;3.57;;
12267;SDS011;6196;48.398;11.736;2023-03-21T03:25:43;6.37;;;3.77;;
12267;SDS011;6196;48.398;11.736;2023-03-21T03:28:19;4.20;;;3.80;;
12267;SDS011;6196;48.398;11.736;2023-03-21T03:30:51;4.27;;;3.87;;
12267;SDS011;6196;48.398;11.736;2023-03-21T03:33:34;6.03;;;4.10;;
12267;SDS011;6196;48.398;11.736;2023-03-21T03:36:07;4.50;;;4.10;;
12267;SDS011;6196;48.398;11.736;2023-03-21T03:38:53;4.63;;;3.90;;
12267;SDS011;6196;48.398;11.736;2023-03-21T03:41:26;4.40;;;4.00;;
12267;SDS011;6196;48.398;11.736;2023-03-21T03:44:01;4.97;;;4.47;;
12267;SDS011;6196;48.398;11.736;2023-03-21T03:46:29;4.20;;;3.83;;
12267;SDS011;6196;48.398;11.736;2023-03-21T03:49:22;4.60;;;4.10;;
12267;SDS011;6196;48.398;11.736;2023-03-21T03:51:57;5.13;;;4.40;;
12267;SDS011;6196;48.398;11.736;2023-03-21T03:54:42;5.10;;;4.17;;
12267;SDS011;6196;48.398;11.736;2023-03-21T03:57:11;4.77;;;4.30;;
12267;SDS011;6196;48.398;11.736;2023-03-21T03:59:40;5.00;;;3.97;;
12267;SDS011;6196;48.398;11.736;2023-03-21T04:02:09;5.00;;;4.50;;
12267;SDS011;6196;48.398;11.736;2023-03-21T04:04:36;4.63;;;4.23;;
12267;SDS011;6196;48.398;11.736;2023-03-21T04:07:03;6.10;;;4.30;;
12267;SDS011;6196;48.398;11.736;2023-03-21T04:09:31;5.23;;;4.73;;
12267;SDS011;6196;48.398;11.736;2023-03-21T04:12:10;5.50;;;4.30;;
12267;SDS011;6196;48.398;11.736;2023-03-21T04:14:38;4.70;;;4.30;;
12267;SDS011;6196;48.398;11.736;2023-03-21T04:17:12;5.07;;;4.53;;
12267;SDS011;6196;48.398;11.736;2023-03-21T04:19:39;4.73;;;4.33;;
12267;SDS011;6196;48.398;11.736;2023-03-21T04:22:06;4.23;;;3.80;;
12267;SDS011;6196;48.398;11.736;2023-03-21T04:24:33;5.03;;;4.40;;
12267;SDS011;6196;48.398;11.736;2023-03-21T04:27:02;4.87;;;4.40;;
12267;SDS011;6196;48.398;11.736;2023-03-21T04:29:31;4.93;;;4.43;;
12267;SDS011;6196;48.398;11.736;2023-03-21T04:31:58;5.17;;;4.40;;
12267;SDS011;6196;48.398;11.736;2023-03-21T04:34:25;4.50;;;4.10;;
12267;SDS011;6196;48.398;11.736;2023-03-21T04:36:54;4.70;;;4.30;;
12267;SDS011;6196;48.398;11.736;2023-03-21T04:39:21;4.67;;;4.27;;
12267;SDS011;6196;48.398;11.736;2023-03-21T04:41:49;5.20;;;4.70;;
12267;SDS011;6196;48.398;11.736;2023-03-21T04:44:16;4.70;;;4.30;;
12267;SDS011;6196;48.398;11.736;2023-03-21T04:46:43;4.67;;;4.27;;
12267;SDS011;6196;48.398;11.736;2023-03-21T04:49:10;5.17;;;4.77;;
12267;SDS011;6196;48.398;11.736;2023-03-21T04:51:37;5.50;;;4.63;;
12267;SDS011;6196;48.398;11.736;2023-03-21T04:54:04;5.07;;;4.43;;
12267;SDS011;6196;48.398;11.736;2023-03-21T04:56:31;4.80;;;4.40;;
12267;SDS011;6196;48.398;11.736;2023-03-21T04:59:02;5.30;;;4.80;;
12267;SDS011;6196;48.398;11.736;2023-03-21T05:01:34;5.90;;;5.27;;
12267;SDS011;6196;48.398;11.736;2023-03-21T05:04:01;5.20;;;4.70;;
12267;SDS011;6196;48.398;11.736;2023-03-21T05:06:29;6.77;;;4.40;;
12267;SDS011;6196;48.398;11.736;2023-03-21T05:08:57;7.00;;;5.07;;
12267;SDS011;6196;48.398;11.736;2023-03-21T05:11:30;5.30;;;4.77;;
12267;SDS011;6196;48.398;11.736;2023-03-21T05:14:00;5.60;;;4.77;;
12267;SDS011;6196;48.398;11.736;2023-03-21T05:16:27;4.93;;;4.47;;
12267;SDS011;6196;48.398;11.736;2023-03-21T05:18:56;5.17;;;4.67;;
12267;SDS011;6196;48.398;11.736;2023-03-21T05:21:32;5.73;;;5.17;;
12267;SDS011;6196;48.398;11.736;2023-03-21T05:24:06;5.57;;;5.07;;
12267;SDS011;6196;48.398;11.736;2023-03-21T05:26:39;4.73;;;4.33;;
12267;SDS011;6196;48.398;11.736;2023-03-21T05:29:08;5.37;;;4.73;;
12267;SDS011;6196;48.398;11.736;2023-03-21T05:31:36;5.30;;;4.83;;
12267;SDS011;6196;48.398;11.736;2023-03-21T05:34:03;5.80;;;5.30;;
12267;SDS011;6196;48.398;11.736;2023-03-21T05:36:29;4.70;;;4.30;;
12267;SDS011;6196;48.398;11.736;2023-03-21T05:38:59;5.30;;;4.80;;
12267;SDS011;6196;48.398;11.736;2023-03-21T05:41:26;5.10;;;4.70;;
12267;SDS011;6196;48.398;11.736;2023-03-21T05:43:53;5.67;;;5.07;;
12267;SDS011;6196;48.398;11.736;2023-03-21T05:46:20;5.63;;;5.00;;
12267;SDS011;6196;48.398;11.736;2023-03-21T05:48:47;5.70;;;5.10;;
12267;SDS011;6196;48.398;11.736;2023-03-21T05:51:14;5.63;;;4.87;;
12267;SDS011;6196;48.398;11.736;2023-03-21T05:53:41;6.60;;;4.87;;
12267;SDS011;6196;48.398;11.736;2023-03-21T05:56:08;5.37;;;4.87;;
12267;SDS011;6196;48.398;11.736;2023-03-21T05:58:35;5.90;;;5.40;;
12267;SDS011;6196;48.398;11.736;2023-03-21T06:01:02;5.23;;;4.60;;
12267;SDS011;6196;48.398;11.736;2023-03-21T06:03:29;5.87;;;5.20;;
12267;SDS011;6196;48.398;11.736;2023-03-21T06:05:56;5.87;;;5.30;;
12267;SDS011;6196;48.398;11.736;2023-03-21T06:08:23;5.03;;;4.63;;
12267;SDS011;6196;48.398;11.736;2023-03-21T06:10:49;4.90;;;4.40;;
12267;SDS011;6196;48.398;11.736;2023-03-21T06:13:16;4.83;;;4.40;;
12267;SDS011;6196;48.398;11.736;2023-03-21T06:15:43;4.87;;;4.40;;
12267;SDS011;6196;48.398;11.736;2023-03-21T06:18:10;6.03;;;4.27;;
12267;SDS011;6196;48.398;11.736;2023-03-21T06:20:37;5.70;;;5.20;;
12267;SDS011;6196;48.398;11.736;2023-03-21T06:23:04;5.23;;;4.73;;
12267;SDS011;6196;48.398;11.736;2023-03-21T06:25:31;6.40;;;5.20;;
12267;SDS011;6196;48.398;11.736;2023-03-21T06:27:57;6.43;;;5.27;;
12267;SDS011;6196;48.398;11.736;2023-03-21T06:30:24;4.80;;;4.40;;
12267;SDS011;6196;48.398;11.736;2023-03-21T06:32:52;5.60;;;5.10;;
12267;SDS011;6196;48.398;11.736;2023-03-21T06:35:20;5.40;;;4.90;;
12267;SDS011;6196;48.398;11.736;2023-03-21T06:37:46;5.27;;;4.77;;
12267;SDS011;6196;48.398;11.736;2023-03-21T06:40:14;5.97;;;5.37;;
12267;SDS011;6196;48.398;11.736;2023-03-21T06:42:41;6.07;;;5.33;;
12267;SDS011;6196;48.398;11.736;2023-03-21T06:45:08;5.40;;;4.90;;
12267;SDS011;6196;48.398;11.736;2023-03-21T06:47:35;6.17;;;5.57;;
12267;SDS011;6196;48.398;11.736;2023-03-21T06:50:02;5.97;;;5.33;;
12267;SDS011;6196;48.398;11.736;2023-03-21T06:52:32;5.07;;;4.67;;
12267;SDS011;6196;48.398;11.736;2023-03-21T06:54:58;5.53;;;5.03;;
12267;SDS011;6196;48.398;11.736;2023-03-21T06:57:25;5.10;;;4.53;;
12267;SDS011;6196;48.398;11.736;2023-03-21T06:59:52;6.77;;;5.13;;
12267;SDS011;6196;48.398;11.736;2023-03-21T07:02:19;5.40;;;4.90;;
12267;SDS011;6196;48.398;11.736;2023-03-21T07:04:46;5.27;;;4.77;;
12267;SDS011;6196;48.398;11.736;2023-03-21T07:07:13;5.37;;;4.80;;
12267;SDS011;6196;48.398;11.736;2023-03-21T07:09:41;6.73;;;5.40;;
12267;SDS011;6196;48.398;11.736;2023-03-21T07:12:07;5.80;;;5.20;;
12267;SDS011;6196;48.398;11.736;2023-03-21T07:14:35;5.80;;;5.30;;
12267;SDS011;6196;48.398;11.736;2023-03-21T07:17:02;5.40;;;4.90;;
12267;SDS011;6196;48.398;11.736;2023-03-21T07:19:29;5.43;;;4.93;;
12267;SDS011;6196;48.398;11.736;2023-03-21T07:21:56;5.97;;;5.37;;
12267;SDS011;6196;48.398;11.736;2023-03-21T07:24:23;5.70;;;5.03;;
12267;SDS011;6196;48.398;11.736;2023-03-21T07:26:49;6.00;;;5.40;;
12267;SDS011;6196;48.398;11.736;2023-03-21T07:29:16;5.63;;;5.03;;
12267;SDS011;6196;48.398;11.736;2023-03-21T07:31:46;13.60;;;5.33;;
12267;SDS011;6196;48.398;11.736;2023-03-21T07:34:13;8.33;;;5.03;;
12267;SDS011;6196;48.398;11.736;2023-03-21T07:36:41;5.10;;;4.70;;
12267;SDS011;6196;48.398;11.736;2023-03-21T07:39:08;6.50;;;4.87;;
12267;SDS011;6196;48.398;11.736;2023-03-21T07:41:35;5.10;;;4.53;;
12267;SDS011;6196;48.398;11.736;2023-03-21T07:44:02;7.00;;;4.90;;
12267;SDS011;6196;48.398;11.736;2023-03-21T07:46:29;4.90;;;4.40;;
12267;SDS011;6196;48.398;11.736;2023-03-21T07:48:56;5.90;;;5.30;;
12267;SDS011;6196;48.398;11.736;2023-03-21T07:51:22;5.37;;;4.87;;
12267;SDS011;6196;48.398;11.736;2023-03-21T07:53:49;5.70;;;4.73;;
12267;SDS011;6196;48.398;11.736;2023-03-21T07:56:16;6.27;;;5.03;;
12267;SDS011;6196;48.398;11.736;2023-03-21T07:58:43;5.80;;;5.20;;
12267;SDS011;6196;48.398;11.736;2023-03-21T08:01:10;5.80;;;5.30;;
12267;SDS011;6196;48.398;11.736;2023-03-21T08:03:37;6.10;;;5.27;;
12267;SDS011;6196;48.398;11.736;2023-03-21T08:06:04;5.73;;;5.13;;
12267;SDS011;6196;48.398;11.736;2023-03-21T08:08:31;5.90;;;5.40;;
12267;SDS011;6196;48.398;11.736;2023-03-21T08:10:58;5.73;;;5.23;;
12267;SDS011;6196;48.398;11.736;2023-03-21T08:13:25;6.07;;;5.47;;
12267;SDS011;6196;48.398;11.736;2023-03-21T08:15:52;6.20;;;5.60;;
12267;SDS011;6196;48.398;11.736;2023-03-21T08:18:19;6.20;;;5.60;;
12267;SDS011;6196;48.398;11.736;2023-03-21T08:20:50;6.10;;;5.50;;
12267;SDS011;6196;48.398;11.736;2023-03-21T08:23:21;8.03;;;5.80;;
12267;SDS011;6196;48.398;11.736;2023-03-21T08:25:50;6.37;;;5.77;;
12267;SDS011;6196;48.398;11.736;2023-03-21T08:28:21;6.33;;;5.57;;
12267;SDS011;6196;48.398;11.736;2023-03-21T08:30:49;6.97;;;5.60;;
12267;SDS011;6196;48.398;11.736;2023-03-21T08:33:16;6.50;;;5.90;;
12267;SDS011;6196;48.398;11.736;2023-03-21T08:35:43;7.37;;;6.67;;
12267;SDS011;6196;48.398;11.736;2023-03-21T08:38:11;10.67;;;7.57;;
12267;SDS011;6196;48.398;11.736;2023-03-21T08:40:39;8.03;;;6.20;;
12267;SDS011;6196;48.398;11.736;2023-03-21T08:43:06;6.83;;;5.80;;
12267;SDS011;6196;48.398;11.736;2023-03-21T08:45:33;7.73;;;6.57;;
12267;SDS011;6196;48.398;11.736;2023-03-21T08:48:00;6.80;;;6.13;;
12267;SDS011;6196;48.398;11.736;2023-03-21T08:50:27;7.00;;;6.27;;
12267;SDS011;6196;48.398;11.736;2023-03-21T08:52:56;7.33;;;5.73;;
12267;SDS011;6196;48.398;11.736;2023-03-21T08:55:23;7.10;;;6.13;;
12267;SDS011;6196;48.398;11.736;2023-03-21T08:57:50;6.80;;;6.10;;
12267;SDS011;6196;48.398;11.736;2023-03-21T09:00:17;8.13;;;6.30;;
12267;SDS011;6196;48.398;11.736;2023-03-21T09:02:47;7.30;;;6.20;;
12267;SDS011;6196;48.398;11.736;2023-03-21T09:05:16;8.27;;;6.23;;
12267;SDS011;6196;48.398;11.736;2023-03-21T09:07:43;6.90;;;5.67;;
12267;SDS011;6196;48.398;11.736;2023-03-21T09:10:12;8.43;;;5.60;;
12267;SDS011;6196;48.398;11.736;2023-03-21T09:12:51;8.30;;;6.03;;
12267;SDS011;6196;48.398;11.736;2023-03-21T09:15:20;7.40;;;6.13;;
12267;SDS011;6196;48.398;11.736;2023-03-21T09:17:53;7.67;;;6.27;;
12267;SDS011;6196;48.398;11.736;2023-03-21T09:20:24;7.83;;;6.20;;
12267;SDS011;6196;48.398;11.736;2023-03-21T09:22:56;6.20;;;5.60;;
12267;SDS011;6196;48.398;11.736;2023-03-21T09:25:24;6.60;;;5.80;;
12267;SDS011;6196;48.398;11.736;2023-03-21T09:27:56;6.43;;;5.37;;
12267;SDS011;6196;48.398;11.736;2023-03-21T09:30:25;6.53;;;5.83;;
12267;SDS011;6196;48.398;11.736;2023-03-21T09:32:52;6.83;;;5.53;;
12267;SDS011;6196;48.398;11.736;2023-03-21T09:35:21;6.43;;;5.37;;
12267;SDS011;6196;48.398;11.736;2023-03-21T09:37:49;5.57;;;4.53;;
12267;SDS011;6196;48.398;11.736;2023-03-21T09:40:29;5.60;;;4.90;;
12267;SDS011;6196;48.398;11.736;2023-03-21T09:46:35;5.93;;;5.30;;
12267;SDS011;6196;48.398;11.736;2023-03-21T09:51:50;7.47;;;5.60;;
12267;SDS011;6196;48.398;11.736;2023-03-21T09:54:27;5.33;;;4.83;;
12267;SDS011;6196;48.398;11.736;2023-03-21T09:57:00;5.30;;;4.50;;
12267;SDS011;6196;48.398;11.736;2023-03-21T09:59:40;5.87;;;4.80;;
12267;SDS011;6196;48.398;11.736;2023-03-21T10:02:42;5.50;;;4.97;;
12267;SDS011;6196;48.398;11.736;2023-03-21T10:05:29;5.23;;;4.60;;
12267;SDS011;6196;48.398;11.736;2023-03-21T10:08:00;4.27;;;3.53;;
12267;SDS011;6196;48.398;11.736;2023-03-21T10:10:54;4.90;;;3.90;;
12267;SDS011;6196;48.398;11.736;2023-03-21T10:13:33;5.07;;;4.10;;
12267;SDS011;6196;48.398;11.736;2023-03-21T10:16:27;4.80;;;3.60;;
12267;SDS011;6196;48.398;11.736;2023-03-21T10:19:13;6.63;;;4.50;;
12267;SDS011;6196;48.398;11.736;2023-03-21T10:21:44;7.17;;;4.60;;
12267;SDS011;6196;48.398;11.736;2023-03-21T10:24:26;4.33;;;3.27;;
12267;SDS011;6196;48.398;11.736;2023-03-21T10:26:54;4.17;;;3.63;;
12267;SDS011;6196;48.398;11.736;2023-03-21T10:29:24;5.93;;;4.00;;
12267;SDS011;6196;48.398;11.736;2023-03-21T10:31:58;5.00;;;4.23;;
12267;SDS011;6196;48.398;11.736;2023-03-21T10:34:34;5.03;;;4.50;;
12267;SDS011;6196;48.398;11.736;2023-03-21T10:37:07;4.37;;;3.97;;
12267;SDS011;6196;48.398;11.736;2023-03-21T10:39:41;4.27;;;3.87;;
12267;SDS011;6196;48.398;11.736;2023-03-21T10:42:17;6.77;;;4.00;;
12267;SDS011;6196;48.398;11.736;2023-03-21T10:44:49;3.93;;;3.53;;
12267;SDS011;6196;48.398;11.736;2023-03-21T10:47:26;4.30;;;3.90;;
12267;SDS011;6196;48.398;11.736;2023-03-21T10:50:00;4.63;;;4.03;;
12267;SDS011;6196;48.398;11.736;2023-03-21T10:52:50;4.40;;;4.00;;
12267;SDS011;6196;48.398;11.736;2023-03-21T10:55:26;5.37;;;4.33;;
12267;SDS011;6196;48.398;11.736;2023-03-21T10:58:03;4.90;;;4.10;;
12267;SDS011;6196;48.398;11.736;2023-03-21T11:00:36;6.40;;;4.50;;
12267;SDS011;6196;48.398;11.736;2023-03-21T11:03:13;4.57;;;4.17;;
12267;SDS011;6196;48.398;11.736;2023-03-21T11:09:08;4.50;;;4.00;;
12267;SDS011;6196;48.398;11.736;2023-03-21T11:11:54;5.20;;;3.10;;
12267;SDS011;6196;48.398;11.736;2023-03-21T11:14:42;4.17;;;3.20;;
12267;SDS011;6196;48.398;11.736;2023-03-21T11:19:49;3.83;;;3.30;;
12267;SDS011;6196;48.398;11.736;2023-03-21T11:22:27;3.57;;;3.23;;
12267;SDS011;6196;48.398;11.736;2023-03-21T11:25:03;4.43;;;2.84;;
12267;SDS011;6196;48.398;11.736;2023-03-21T11:27:42;3.93;;;3.53;;
12267;SDS011;6196;48.398;11.736;2023-03-21T11:30:20;5.73;;;3.50;;
12267;SDS011;6196;48.398;11.736;2023-03-21T11:32:53;4.33;;;3.70;;
12267;SDS011;6196;48.398;11.736;2023-03-21T11:35:32;4.80;;;3.33;;
12267;SDS011;6196;48.398;11.736;2023-03-21T11:38:04;3.70;;;3.17;;
12267;SDS011;6196;48.398;11.736;2023-03-21T11:40:33;4.77;;;3.67;;
12267;SDS011;6196;48.398;11.736;2023-03-21T11:43:03;3.77;;;3.10;;
12267;SDS011;6196;48.398;11.736;2023-03-21T11:45:59;5.07;;;3.40;;
12267;SDS011;6196;48.398;11.736;2023-03-21T11:56:36;3.47;;;3.17;;
12267;SDS011;6196;48.398;11.736;2023-03-21T12:05:04;4.00;;;3.53;;
12267;SDS011;6196;48.398;11.736;2023-03-21T12:08:00;4.00;;;3.00;;
12267;SDS011;6196;48.398;11.736;2023-03-21T12:11:25;3.47;;;3.17;;
12267;SDS011;6196;48.398;11.736;2023-03-21T12:13:47;3.80;;;3.50;;
12267;SDS011;6196;48.398;11.736;2023-03-21T12:20:09;3.50;;;3.20;;
12267;SDS011;6196;48.398;11.736;2023-03-21T12:25:24;3.90;;;3.60;;
12267;SDS011;6196;48.398;11.736;2023-03-21T12:28:14;4.17;;;3.77;;
12267;SDS011;6196;48.398;11.736;2023-03-21T12:31:08;4.47;;;3.60;;
12267;SDS011;6196;48.398;11.736;2023-03-21T12:33:57;4.10;;;3.70;;
12267;SDS011;6196;48.398;11.736;2023-03-21T12:39:50;4.40;;;4.00;;
12267;SDS011;6196;48.398;11.736;2023-03-21T12:45:40;4.40;;;4.00;;
12267;SDS011;6196;48.398;11.736;2023-03-21T12:51:13;5.03;;;4.53;;
12267;SDS011;6196;48.398;11.736;2023-03-21T12:56:42;4.77;;;4.27;;
12267;SDS011;6196;48.398;11.736;2023-03-21T12:59:22;4.77;;;4.03;;
12267;SDS011;6196;48.398;11.736;2023-03-21T13:01:58;4.47;;;4.03;;
12267;SDS011;6196;48.398;11.736;2023-03-21T13:05:19;4.70;;;4.30;;
12267;SDS011;6196;48.398;11.736;2023-03-21T13:07:36;4.37;;;3.80;;
12267;SDS011;6196;48.398;11.736;2023-03-21T13:10:14;4.13;;;3.77;;
12267;SDS011;6196;48.398;11.736;2023-03-21T13:13:07;4.10;;;3.80;;
12267;SDS011;6196;48.398;11.736;2023-03-21T13:16:05;3.97;;;3.53;;
12267;SDS011;6196;48.398;11.736;2023-03-21T13:24:45;3.97;;;3.63;;
12267;SDS011;6196;48.398;11.736;2023-03-21T13:29:53;4.83;;;3.60;;
12267;SDS011;6196;48.398;11.736;2023-03-21T13:32:37;4.30;;;3.90;;
12267;SDS011;6196;48.398;11.736;2023-03-21T13:35:13;3.23;;;3.03;;
12267;SDS011;6196;48.398;11.736;2023-03-21T13:37:49;4.07;;;3.57;;
12267;SDS011;6196;48.398;11.736;2023-03-21T13:40:26;4.20;;;3.90;;
12267;SDS011;6196;48.398;11.736;2023-03-21T13:43:04;4.03;;;3.63;;
12267;SDS011;6196;48.398;11.736;2023-03-21T13:45:57;5.00;;;4.50;;
12267;SDS011;6196;48.398;11.736;2023-03-21T13:54:21;3.67;;;3.43;;
12267;SDS011;6196;48.398;11.736;2023-03-21T13:56:56;3.87;;;3.57;;
12267;SDS011;6196;48.398;11.736;2023-03-21T14:02:30;4.20;;;3.80;;
12267;SDS011;6196;48.398;11.736;2023-03-21T14:05:00;4.30;;;3.90;;
12267;SDS011;6196;48.398;11.736;2023-03-21T14:07:33;5.17;;;4.50;;
12267;SDS011;6196;48.398;11.736;2023-03-21T14:10:16;4.80;;;4.00;;
12267;SDS011;6196;48.398;11.736;2023-03-21T14:13:01;3.65;;;3.35;;
12267;SDS011;6196;48.398;11.736;2023-03-21T14:15:38;3.60;;;3.30;;
12267;SDS011;6196;48.398;11.736;2023-03-21T14:18:21;3.70;;;3.40;;
12267;SDS011;6196;48.398;11.736;2023-03-21T14:21:30;4.55;;;3.75;;
12267;SDS011;6196;48.398;11.736;2023-03-21T14:24:03;4.20;;;2.88;;
12267;SDS011;6196;48.398;11.736;2023-03-21T14:26:34;4.10;;;3.80;;
12267;SDS011;6196;48.398;11.736;2023-03-21T14:29:06;3.28;;;3.00;;
12267;SDS011;6196;48.398;11.736;2023-03-21T14:31:51;2.80;;;2.60;;
12267;SDS011;6196;48.398;11.736;2023-03-21T14:34:20;3.13;;;2.83;;
12267;SDS011;6196;48.398;11.736;2023-03-21T14:36:48;3.40;;;3.10;;
12267;SDS011;6196;48.398;11.736;2023-03-21T14:39:27;4.03;;;3.22;;
12267;SDS011;6196;48.398;11.736;2023-03-21T14:42:01;2.95;;;2.75;;
12267;SDS011;6196;48.398;11.736;2023-03-21T14:44:41;3.90;;;3.55;;
12267;SDS011;6196;48.398;11.736;2023-03-21T14:47:25;3.47;;;3.10;;
12267;SDS011;6196;48.398;11.736;2023-03-21T14:49:54;4.30;;;2.65;;
12267;SDS011;6196;48.398;11.736;2023-03-21T14:52:23;3.75;;;2.70;;
12267;SDS011;6196;48.398;11.736;2023-03-21T14:54:57;4.47;;;2.97;;
12267;SDS011;6196;48.398;11.736;2023-03-21T14:57:27;3.80;;;2.80;;
12267;SDS011;6196;48.398;11.736;2023-03-21T14:59:59;2.95;;;2.65;;
12267;SDS011;6196;48.398;11.736;2023-03-21T15:02:38;3.20;;;2.90;;
12267;SDS011;6196;48.398;11.736;2023-03-21T15:08:05;3.10;;;2.80;;
12267;SDS011;6196;48.398;11.736;2023-03-21T15:10:39;3.75;;;2.97;;
12267;SDS011;6196;48.398;11.736;2023-03-21T15:13:13;3.03;;;2.83;;
12267;SDS011;6196;48.398;11.736;2023-03-21T15:15:44;3.10;;;2.90;;
12267;SDS011;6196;48.398;11.736;2023-03-21T15:18:13;3.80;;;3.27;;
12267;SDS011;6196;48.398;11.736;2023-03-21T15:20:45;3.33;;;3.03;;
12267;SDS011;6196;48.398;11.736;2023-03-21T15:23:21;4.27;;;3.07;;
12267;SDS011;6196;48.398;11.736;2023-03-21T15:26:00;3.50;;;2.80;;
12267;SDS011;6196;48.398;11.736;2023-03-21T15:28:28;3.00;;;2.80;;
12267;SDS011;6196;48.398;11.736;2023-03-21T15:31:16;3.50;;;3.10;;
12267;SDS011;6196;48.398;11.736;2023-03-21T15:33:47;3.17;;;2.90;;
12267;SDS011;6196;48.398;11.736;2023-03-21T15:36:26;3.67;;;3.10;;
12267;SDS011;6196;48.398;11.736;2023-03-21T15:39:05;3.10;;;2.80;;
12267;SDS011;6196;48.398;11.736;2023-03-21T15:41:38;4.43;;;2.97;;
12267;SDS011;6196;48.398;11.736;2023-03-21T15:47:00;3.20;;;2.90;;
12267;SDS011;6196;48.398;11.736;2023-03-21T15:49:28;4.53;;;3.10;;
12267;SDS011;6196;48.398;11.736;2023-03-21T15:52:02;3.20;;;2.90;;
12267;SDS011;6196;48.398;11.736;2023-03-21T15:54:39;3.00;;;2.80;;
12267;SDS011;6196;48.398;11.736;2023-03-21T15:57:24;3.13;;;2.80;;
12267;SDS011;6196;48.398;11.736;2023-03-21T16:00:00;3.57;;;3.23;;
12267;SDS011;6196;48.398;11.736;2023-03-21T16:02:46;4.00;;;2.93;;
12267;SDS011;6196;48.398;11.736;2023-03-21T16:05:25;3.10;;;2.80;;
12267;SDS011;6196;48.398;11.736;2023-03-21T16:08:15;2.80;;;2.60;;
12267;SDS011;6196;48.398;11.736;2023-03-21T16:10:47;4.30;;;2.30;;
12267;SDS011;6196;48.398;11.736;2023-03-21T16:13:14;2.83;;;2.63;;
12267;SDS011;6196;48.398;11.736;2023-03-21T16:15:42;3.47;;;2.73;;
12267;SDS011;6196;48.398;11.736;2023-03-21T16:18:14;3.40;;;3.10;;
12267;SDS011;6196;48.398;11.736;2023-03-21T16:20:42;4.20;;;3.47;;
12267;SDS011;6196;48.398;11.736;2023-03-21T16:23:12;4.37;;;3.17;;
12267;SDS011;6196;48.398;11.736;2023-03-21T16:25:41;3.90;;;3.60;;
12267;SDS011;6196;48.398;11.736;2023-03-21T16:28:11;4.83;;;4.00;;
12267;SDS011;6196;48.398;11.736;2023-03-21T16:30:41;5.23;;;4.73;;
12267;SDS011;6196;48.398;11.736;2023-03-21T16:33:12;4.80;;;4.03;;
12267;SDS011;6196;48.398;11.736;2023-03-21T16:35:39;8.17;;;6.33;;
12267;SDS011;6196;48.398;11.736;2023-03-21T16:38:08;20.60;;;13.27;;
12267;SDS011;6196;48.398;11.736;2023-03-21T16:40:39;10.23;;;7.67;;
12267;SDS011;6196;48.398;11.736;2023-03-21T16:43:09;16.00;;;9.97;;
12267;SDS011;6196;48.398;11.736;2023-03-21T16:45:36;17.37;;;12.00;;
12267;SDS011;6196;48.398;11.736;2023-03-21T16:48:03;12.97;;;8.70;;
12267;SDS011;6196;48.398;11.736;2023-03-21T16:50:39;14.67;;;7.93;;
12267;SDS011;6196;48.398;11.736;2023-03-21T16:53:08;9.80;;;4.90;;
12267;SDS011;6196;48.398;11.736;2023-03-21T16:55:35;5.43;;;4.07;;
12267;SDS011;6196;48.398;11.736;2023-03-21T16:58:03;5.40;;;3.90;;